sensor_id;sensor_type;location;lat;lon;timestamp;P1;durP1;ratioP1;P2;durP2;ratioP2
10902;SDS011;5504;47.312;11.060;2023-07-28T00:01:26;3.67;;;2.80;;
10902;SDS011;5504;47.312;11.060;2023-07-28T00:03:52;4.40;;;2.97;;
10902;SDS011;5504;47.312;11.060;2023-07-28T00:06:18;3.13;;;2.70;;
10902;SDS011;5504;47.312;11.060;2023-07-28T00:08:43;3.77;;;3.37;;
10902;SDS011;5504;47.312;11.060;2023-07-28T00:11:13;3.17;;;2.87;;
10902;SDS011;5504;47.312;11.060;2023-07-28T00:13:40;4.30;;;3.40;;
10902;SDS011;5504;47.312;11.060;2023-07-28T00:16:06;3.40;;;2.87;;
10902;SDS011;5504;47.312;11.060;2023-07-28T00:18:33;3.30;;;2.67;;
10902;SDS011;5504;47.312;11.060;2023-07-28T00:20:59;3.13;;;2.60;;
10902;SDS011;5504;47.312;11.060;2023-07-28T00:23:25;3.97;;;3.23;;
10902;SDS011;5504;47.312;11.060;2023-07-28T00:25:51;3.13;;;2.83;;
10902;SDS011;5504;47.312;11.060;2023-07-28T00:28:17;4.30;;;2.83;;
10902;SDS011;5504;47.312;11.060;2023-07-28T00:30:42;3.50;;;3.10;;
10902;SDS011;5504;47.312;11.060;2023-07-28T00:33:08;4.13;;;3.10;;
10902;SDS011;5504;47.312;11.060;2023-07-28T00:35:34;3.57;;;3.10;;
10902;SDS011;5504;47.312;11.060;2023-07-28T00:37:59;3.77;;;3.07;;
10902;SDS011;5504;47.312;11.060;2023-07-28T00:40:25;4.57;;;2.67;;
10902;SDS011;5504;47.312;11.060;2023-07-28T00:42:51;4.03;;;3.10;;
10902;SDS011;5504;47.312;11.060;2023-07-28T00:45:17;2.90;;;2.60;;
10902;SDS011;5504;47.312;11.060;2023-07-28T00:47:42;4.67;;;3.00;;
10902;SDS011;5504;47.312;11.060;2023-07-28T00:50:08;4.10;;;2.93;;
10902;SDS011;5504;47.312;11.060;2023-07-28T00:52:35;3.73;;;2.90;;
10902;SDS011;5504;47.312;11.060;2023-07-28T00:55:02;5.13;;;3.30;;
10902;SDS011;5504;47.312;11.060;2023-07-28T00:57:28;3.53;;;3.20;;
10902;SDS011;5504;47.312;11.060;2023-07-28T00:59:53;3.53;;;3.10;;
10902;SDS011;5504;47.312;11.060;2023-07-28T01:02:19;4.93;;;3.20;;
10902;SDS011;5504;47.312;11.060;2023-07-28T01:04:46;3.40;;;3.10;;
10902;SDS011;5504;47.312;11.060;2023-07-28T01:07:17;3.63;;;3.10;;
10902;SDS011;5504;47.312;11.060;2023-07-28T01:10:46;3.87;;;3.20;;
10902;SDS011;5504;47.312;11.060;2023-07-28T01:12:51;3.60;;;3.17;;
10902;SDS011;5504;47.312;11.060;2023-07-28T01:15:17;3.97;;;3.20;;
10902;SDS011;5504;47.312;11.060;2023-07-28T01:17:42;5.23;;;3.07;;
10902;SDS011;5504;47.312;11.060;2023-07-28T01:20:08;3.83;;;3.00;;
10902;SDS011;5504;47.312;11.060;2023-07-28T01:22:42;3.93;;;3.37;;
10902;SDS011;5504;47.312;11.060;2023-07-28T01:27:58;3.40;;;3.00;;
10902;SDS011;5504;47.312;11.060;2023-07-28T01:30:25;3.17;;;2.83;;
10902;SDS011;5504;47.312;11.060;2023-07-28T01:32:56;3.43;;;3.13;;
10902;SDS011;5504;47.312;11.060;2023-07-28T01:35:22;3.37;;;3.03;;
10902;SDS011;5504;47.312;11.060;2023-07-28T01:37:48;6.37;;;3.00;;
10902;SDS011;5504;47.312;11.060;2023-07-28T01:40:18;3.77;;;2.93;;
10902;SDS011;5504;47.312;11.060;2023-07-28T01:42:44;4.37;;;3.07;;
10902;SDS011;5504;47.312;11.060;2023-07-28T01:45:10;4.60;;;3.20;;
10902;SDS011;5504;47.312;11.060;2023-07-28T01:47:36;3.50;;;2.90;;
10902;SDS011;5504;47.312;11.060;2023-07-28T01:50:02;3.77;;;3.33;;
10902;SDS011;5504;47.312;11.060;2023-07-28T01:52:28;4.17;;;3.20;;
10902;SDS011;5504;47.312;11.060;2023-07-28T01:54:54;4.83;;;3.00;;
10902;SDS011;5504;47.312;11.060;2023-07-28T01:57:19;3.93;;;2.80;;
10902;SDS011;5504;47.312;11.060;2023-07-28T01:59:45;3.27;;;2.70;;
10902;SDS011;5504;47.312;11.060;2023-07-28T02:02:11;4.30;;;3.03;;
10902;SDS011;5504;47.312;11.060;2023-07-28T02:04:37;3.40;;;3.10;;
10902;SDS011;5504;47.312;11.060;2023-07-28T02:07:02;4.83;;;3.03;;
10902;SDS011;5504;47.312;11.060;2023-07-28T02:09:28;3.63;;;2.90;;
10902;SDS011;5504;47.312;11.060;2023-07-28T02:11:54;4.50;;;2.97;;
10902;SDS011;5504;47.312;11.060;2023-07-28T02:14:19;5.00;;;3.27;;
10902;SDS011;5504;47.312;11.060;2023-07-28T02:16:45;3.40;;;2.90;;
10902;SDS011;5504;47.312;11.060;2023-07-28T02:19:10;3.30;;;3.00;;
10902;SDS011;5504;47.312;11.060;2023-07-28T02:21:36;4.20;;;3.50;;
10902;SDS011;5504;47.312;11.060;2023-07-28T02:24:02;3.30;;;2.87;;
10902;SDS011;5504;47.312;11.060;2023-07-28T02:26:28;5.67;;;3.20;;
10902;SDS011;5504;47.312;11.060;2023-07-28T02:28:53;3.73;;;3.10;;
10902;SDS011;5504;47.312;11.060;2023-07-28T02:31:19;5.37;;;3.50;;
10902;SDS011;5504;47.312;11.060;2023-07-28T02:33:45;3.50;;;3.10;;
10902;SDS011;5504;47.312;11.060;2023-07-28T02:36:10;4.00;;;3.00;;
10902;SDS011;5504;47.312;11.060;2023-07-28T02:38:36;3.60;;;3.07;;
10902;SDS011;5504;47.312;11.060;2023-07-28T02:41:02;4.27;;;3.30;;
10902;SDS011;5504;47.312;11.060;2023-07-28T02:43:29;3.87;;;3.20;;
10902;SDS011;5504;47.312;11.060;2023-07-28T02:45:55;4.27;;;3.30;;
10902;SDS011;5504;47.312;11.060;2023-07-28T02:48:21;3.30;;;3.00;;
10902;SDS011;5504;47.312;11.060;2023-07-28T02:50:48;3.73;;;3.27;;
10902;SDS011;5504;47.312;11.060;2023-07-28T02:53:15;3.50;;;2.93;;
10902;SDS011;5504;47.312;11.060;2023-07-28T02:55:42;6.53;;;3.43;;
10902;SDS011;5504;47.312;11.060;2023-07-28T02:58:08;5.73;;;3.10;;
10902;SDS011;5504;47.312;11.060;2023-07-28T03:00:38;4.43;;;3.40;;
10902;SDS011;5504;47.312;11.060;2023-07-28T03:03:05;3.80;;;3.40;;
10902;SDS011;5504;47.312;11.060;2023-07-28T03:05:31;4.20;;;3.70;;
10902;SDS011;5504;47.312;11.060;2023-07-28T03:07:58;5.40;;;3.40;;
10902;SDS011;5504;47.312;11.060;2023-07-28T03:10:24;3.80;;;3.17;;
10902;SDS011;5504;47.312;11.060;2023-07-28T03:12:50;3.63;;;3.17;;
10902;SDS011;5504;47.312;11.060;2023-07-28T03:15:15;3.43;;;3.10;;
10902;SDS011;5504;47.312;11.060;2023-07-28T03:17:41;4.50;;;3.20;;
10902;SDS011;5504;47.312;11.060;2023-07-28T03:20:07;4.87;;;3.20;;
10902;SDS011;5504;47.312;11.060;2023-07-28T03:22:33;3.57;;;2.97;;
10902;SDS011;5504;47.312;11.060;2023-07-28T03:24:59;4.40;;;3.30;;
10902;SDS011;5504;47.312;11.060;2023-07-28T03:27:24;3.40;;;3.10;;
10902;SDS011;5504;47.312;11.060;2023-07-28T03:29:50;5.20;;;3.47;;
10902;SDS011;5504;47.312;11.060;2023-07-28T03:32:16;4.13;;;2.97;;
10902;SDS011;5504;47.312;11.060;2023-07-28T03:34:42;4.80;;;3.33;;
10902;SDS011;5504;47.312;11.060;2023-07-28T03:37:08;4.43;;;3.30;;
10902;SDS011;5504;47.312;11.060;2023-07-28T03:39:34;3.50;;;3.20;;
10902;SDS011;5504;47.312;11.060;2023-07-28T03:41:59;4.43;;;3.07;;
10902;SDS011;5504;47.312;11.060;2023-07-28T03:44:25;4.73;;;3.37;;
10902;SDS011;5504;47.312;11.060;2023-07-28T03:46:51;4.10;;;3.30;;
10902;SDS011;5504;47.312;11.060;2023-07-28T03:49:17;3.77;;;3.37;;
10902;SDS011;5504;47.312;11.060;2023-07-28T03:51:42;4.63;;;3.57;;
10902;SDS011;5504;47.312;11.060;2023-07-28T03:54:08;4.17;;;3.40;;
10902;SDS011;5504;47.312;11.060;2023-07-28T03:56:34;4.20;;;3.50;;
10902;SDS011;5504;47.312;11.060;2023-07-28T03:58:59;3.67;;;3.23;;
10902;SDS011;5504;47.312;11.060;2023-07-28T04:01:25;3.73;;;2.80;;
10902;SDS011;5504;47.312;11.060;2023-07-28T04:03:51;3.73;;;3.13;;
10902;SDS011;5504;47.312;11.060;2023-07-28T04:06:16;4.20;;;3.30;;
10902;SDS011;5504;47.312;11.060;2023-07-28T04:08:42;4.30;;;3.50;;
10902;SDS011;5504;47.312;11.060;2023-07-28T04:11:08;3.57;;;3.00;;
10902;SDS011;5504;47.312;11.060;2023-07-28T04:13:34;4.80;;;3.53;;
10902;SDS011;5504;47.312;11.060;2023-07-28T04:16:00;3.77;;;3.37;;
10902;SDS011;5504;47.312;11.060;2023-07-28T04:18:26;3.70;;;3.23;;
10902;SDS011;5504;47.312;11.060;2023-07-28T04:20:52;3.93;;;3.40;;
10902;SDS011;5504;47.312;11.060;2023-07-28T04:23:18;3.40;;;3.00;;
10902;SDS011;5504;47.312;11.060;2023-07-28T04:25:44;3.73;;;3.23;;
10902;SDS011;5504;47.312;11.060;2023-07-28T04:28:09;4.37;;;3.13;;
10902;SDS011;5504;47.312;11.060;2023-07-28T04:30:35;4.23;;;3.20;;
10902;SDS011;5504;47.312;11.060;2023-07-28T04:33:01;4.20;;;3.40;;
10902;SDS011;5504;47.312;11.060;2023-07-28T04:35:29;4.10;;;3.20;;
10902;SDS011;5504;47.312;11.060;2023-07-28T04:37:55;4.53;;;3.23;;
10902;SDS011;5504;47.312;11.060;2023-07-28T04:40:21;3.97;;;3.47;;
10902;SDS011;5504;47.312;11.060;2023-07-28T04:42:46;4.33;;;3.80;;
10902;SDS011;5504;47.312;11.060;2023-07-28T04:45:14;3.87;;;3.40;;
10902;SDS011;5504;47.312;11.060;2023-07-28T04:47:39;3.67;;;3.27;;
10902;SDS011;5504;47.312;11.060;2023-07-28T04:50:05;3.33;;;3.00;;
10902;SDS011;5504;47.312;11.060;2023-07-28T04:52:31;3.83;;;3.30;;
10902;SDS011;5504;47.312;11.060;2023-07-28T04:54:57;3.80;;;3.37;;
10902;SDS011;5504;47.312;11.060;2023-07-28T04:57:22;6.03;;;3.83;;
10902;SDS011;5504;47.312;11.060;2023-07-28T04:59:48;4.80;;;3.80;;
10902;SDS011;5504;47.312;11.060;2023-07-28T05:02:14;3.93;;;3.50;;
10902;SDS011;5504;47.312;11.060;2023-07-28T05:04:39;4.60;;;3.30;;
10902;SDS011;5504;47.312;11.060;2023-07-28T05:07:05;3.90;;;3.50;;
10902;SDS011;5504;47.312;11.060;2023-07-28T05:09:30;3.47;;;3.07;;
10902;SDS011;5504;47.312;11.060;2023-07-28T05:11:56;4.20;;;3.60;;
10902;SDS011;5504;47.312;11.060;2023-07-28T05:14:22;5.27;;;3.97;;
10902;SDS011;5504;47.312;11.060;2023-07-28T05:16:48;4.73;;;3.23;;
10902;SDS011;5504;47.312;11.060;2023-07-28T05:19:13;7.33;;;3.53;;
10902;SDS011;5504;47.312;11.060;2023-07-28T05:21:39;5.50;;;3.87;;
10902;SDS011;5504;47.312;11.060;2023-07-28T05:24:05;4.77;;;3.90;;
10902;SDS011;5504;47.312;11.060;2023-07-28T05:26:30;5.37;;;3.73;;
10902;SDS011;5504;47.312;11.060;2023-07-28T05:28:56;6.37;;;3.80;;
10902;SDS011;5504;47.312;11.060;2023-07-28T05:31:22;6.23;;;3.90;;
10902;SDS011;5504;47.312;11.060;2023-07-28T05:33:47;4.27;;;3.70;;
10902;SDS011;5504;47.312;11.060;2023-07-28T05:36:14;4.67;;;3.53;;
10902;SDS011;5504;47.312;11.060;2023-07-28T05:38:40;4.13;;;3.53;;
10902;SDS011;5504;47.312;11.060;2023-07-28T05:41:05;5.50;;;3.77;;
10902;SDS011;5504;47.312;11.060;2023-07-28T05:43:32;4.10;;;3.70;;
10902;SDS011;5504;47.312;11.060;2023-07-28T05:46:00;5.47;;;3.67;;
10902;SDS011;5504;47.312;11.060;2023-07-28T05:48:26;5.10;;;3.73;;
10902;SDS011;5504;47.312;11.060;2023-07-28T05:50:52;4.20;;;3.43;;
10902;SDS011;5504;47.312;11.060;2023-07-28T05:53:19;4.47;;;3.53;;
10902;SDS011;5504;47.312;11.060;2023-07-28T05:55:48;4.40;;;3.30;;
10902;SDS011;5504;47.312;11.060;2023-07-28T05:58:14;4.37;;;3.43;;
10902;SDS011;5504;47.312;11.060;2023-07-28T06:00:40;3.43;;;3.13;;
10902;SDS011;5504;47.312;11.060;2023-07-28T06:03:12;5.13;;;3.60;;
10902;SDS011;5504;47.312;11.060;2023-07-28T06:05:38;4.00;;;3.60;;
10902;SDS011;5504;47.312;11.060;2023-07-28T06:08:07;4.33;;;3.50;;
10902;SDS011;5504;47.312;11.060;2023-07-28T06:10:33;4.90;;;3.60;;
10902;SDS011;5504;47.312;11.060;2023-07-28T06:12:59;4.60;;;3.43;;
10902;SDS011;5504;47.312;11.060;2023-07-28T06:15:25;3.53;;;2.97;;
10902;SDS011;5504;47.312;11.060;2023-07-28T06:17:51;3.90;;;3.20;;
10902;SDS011;5504;47.312;11.060;2023-07-28T06:20:17;4.77;;;3.80;;
10902;SDS011;5504;47.312;11.060;2023-07-28T06:22:43;4.50;;;3.67;;
10902;SDS011;5504;47.312;11.060;2023-07-28T06:25:08;4.67;;;3.50;;
10902;SDS011;5504;47.312;11.060;2023-07-28T06:27:34;6.50;;;4.03;;
10902;SDS011;5504;47.312;11.060;2023-07-28T06:30:00;3.60;;;3.30;;
10902;SDS011;5504;47.312;11.060;2023-07-28T06:32:26;4.63;;;3.93;;
10902;SDS011;5504;47.312;11.060;2023-07-28T06:34:53;4.73;;;3.80;;
10902;SDS011;5504;47.312;11.060;2023-07-28T06:37:19;4.20;;;3.60;;
10902;SDS011;5504;47.312;11.060;2023-07-28T06:39:45;4.23;;;3.53;;
10902;SDS011;5504;47.312;11.060;2023-07-28T06:42:10;4.60;;;3.67;;
10902;SDS011;5504;47.312;11.060;2023-07-28T06:44:36;3.83;;;3.40;;
10902;SDS011;5504;47.312;11.060;2023-07-28T06:47:02;5.20;;;3.70;;
10902;SDS011;5504;47.312;11.060;2023-07-28T06:49:28;4.30;;;3.40;;
10902;SDS011;5504;47.312;11.060;2023-07-28T06:51:54;4.50;;;3.27;;
10902;SDS011;5504;47.312;11.060;2023-07-28T06:54:20;3.40;;;3.10;;
10902;SDS011;5504;47.312;11.060;2023-07-28T06:56:45;3.77;;;3.33;;
10902;SDS011;5504;47.312;11.060;2023-07-28T06:59:11;5.03;;;3.60;;
10902;SDS011;5504;47.312;11.060;2023-07-28T07:01:37;4.33;;;3.50;;
10902;SDS011;5504;47.312;11.060;2023-07-28T07:04:03;3.93;;;3.20;;
10902;SDS011;5504;47.312;11.060;2023-07-28T07:06:30;4.60;;;3.60;;
10902;SDS011;5504;47.312;11.060;2023-07-28T07:08:56;7.10;;;3.60;;
10902;SDS011;5504;47.312;11.060;2023-07-28T07:11:22;4.20;;;3.40;;
10902;SDS011;5504;47.312;11.060;2023-07-28T07:13:48;7.10;;;3.30;;
10902;SDS011;5504;47.312;11.060;2023-07-28T07:16:14;3.90;;;3.23;;
10902;SDS011;5504;47.312;11.060;2023-07-28T07:18:42;4.27;;;3.50;;
10902;SDS011;5504;47.312;11.060;2023-07-28T07:21:10;5.03;;;3.50;;
10902;SDS011;5504;47.312;11.060;2023-07-28T07:23:36;4.40;;;3.33;;
10902;SDS011;5504;47.312;11.060;2023-07-28T07:26:02;3.63;;;2.93;;
10902;SDS011;5504;47.312;11.060;2023-07-28T07:28:28;3.33;;;3.03;;
10902;SDS011;5504;47.312;11.060;2023-07-28T07:30:54;4.05;;;3.42;;
10902;SDS011;5504;47.312;11.060;2023-07-28T07:33:20;4.88;;;3.22;;
10902;SDS011;5504;47.312;11.060;2023-07-28T07:35:46;4.75;;;3.05;;
10902;SDS011;5504;47.312;11.060;2023-07-28T07:38:12;6.25;;;3.90;;
10902;SDS011;5504;47.312;11.060;2023-07-28T07:40:38;4.13;;;3.58;;
10902;SDS011;5504;47.312;11.060;2023-07-28T07:43:04;4.47;;;3.05;;
10902;SDS011;5504;47.312;11.060;2023-07-28T07:45:30;4.15;;;3.05;;
10902;SDS011;5504;47.312;11.060;2023-07-28T07:47:57;3.70;;;3.17;;
10902;SDS011;5504;47.312;11.060;2023-07-28T07:50:23;3.90;;;3.08;;
10902;SDS011;5504;47.312;11.060;2023-07-28T07:52:49;4.03;;;2.92;;
10902;SDS011;5504;47.312;11.060;2023-07-28T07:55:15;4.05;;;2.95;;
10902;SDS011;5504;47.312;11.060;2023-07-28T07:57:41;3.20;;;2.85;;
10902;SDS011;5504;47.312;11.060;2023-07-28T08:00:07;3.03;;;2.60;;
10902;SDS011;5504;47.312;11.060;2023-07-28T08:02:34;4.32;;;2.80;;
10902;SDS011;5504;47.312;11.060;2023-07-28T08:05:00;3.15;;;2.85;;
10902;SDS011;5504;47.312;11.060;2023-07-28T08:07:26;4.50;;;2.88;;
10902;SDS011;5504;47.312;11.060;2023-07-28T08:09:51;3.17;;;2.70;;
10902;SDS011;5504;47.312;11.060;2023-07-28T08:12:17;3.72;;;2.63;;
10902;SDS011;5504;47.312;11.060;2023-07-28T08:14:43;4.18;;;2.70;;
10902;SDS011;5504;47.312;11.060;2023-07-28T08:17:11;5.78;;;2.80;;
10902;SDS011;5504;47.312;11.060;2023-07-28T08:19:37;3.10;;;2.80;;
10902;SDS011;5504;47.312;11.060;2023-07-28T08:22:03;2.92;;;2.63;;
10902;SDS011;5504;47.312;11.060;2023-07-28T08:24:29;3.25;;;2.67;;
10902;SDS011;5504;47.312;11.060;2023-07-28T08:26:54;2.70;;;2.45;;
10902;SDS011;5504;47.312;11.060;2023-07-28T08:29:20;3.70;;;2.83;;
10902;SDS011;5504;47.312;11.060;2023-07-28T08:31:46;3.33;;;2.47;;
10902;SDS011;5504;47.312;11.060;2023-07-28T08:34:12;3.15;;;2.70;;
10902;SDS011;5504;47.312;11.060;2023-07-28T08:36:38;4.53;;;2.78;;
10902;SDS011;5504;47.312;11.060;2023-07-28T08:39:04;3.30;;;2.97;;
10902;SDS011;5504;47.312;11.060;2023-07-28T08:41:30;3.03;;;2.72;;
10902;SDS011;5504;47.312;11.060;2023-07-28T08:43:56;2.97;;;2.67;;
10902;SDS011;5504;47.312;11.060;2023-07-28T08:46:22;3.45;;;3.15;;
10902;SDS011;5504;47.312;11.060;2023-07-28T08:48:48;3.22;;;2.88;;
10902;SDS011;5504;47.312;11.060;2023-07-28T08:51:14;2.92;;;2.63;;
10902;SDS011;5504;47.312;11.060;2023-07-28T08:53:39;3.97;;;2.67;;
10902;SDS011;5504;47.312;11.060;2023-07-28T08:56:06;3.13;;;2.50;;
10902;SDS011;5504;47.312;11.060;2023-07-28T08:58:32;3.38;;;2.78;;
10902;SDS011;5504;47.312;11.060;2023-07-28T09:00:58;2.70;;;2.50;;
10902;SDS011;5504;47.312;11.060;2023-07-28T09:03:26;3.75;;;2.70;;
10902;SDS011;5504;47.312;11.060;2023-07-28T09:05:54;4.18;;;2.60;;
10902;SDS011;5504;47.312;11.060;2023-07-28T09:08:27;3.28;;;2.90;;
10902;SDS011;5504;47.312;11.060;2023-07-28T09:10:55;3.10;;;2.80;;
10902;SDS011;5504;47.312;11.060;2023-07-28T09:13:26;3.60;;;2.90;;
10902;SDS011;5504;47.312;11.060;2023-07-28T09:16:16;3.45;;;2.72;;
10902;SDS011;5504;47.312;11.060;2023-07-28T09:18:43;2.70;;;2.50;;
10902;SDS011;5504;47.312;11.060;2023-07-28T09:21:18;3.25;;;2.38;;
10902;SDS011;5504;47.312;11.060;2023-07-28T09:23:48;3.20;;;2.53;;
10902;SDS011;5504;47.312;11.060;2023-07-28T09:26:15;3.08;;;2.70;;
10902;SDS011;5504;47.312;11.060;2023-07-28T09:28:41;3.90;;;2.60;;
10902;SDS011;5504;47.312;11.060;2023-07-28T09:31:07;3.30;;;2.78;;
10902;SDS011;5504;47.312;11.060;2023-07-28T09:33:35;3.33;;;2.83;;
10902;SDS011;5504;47.312;11.060;2023-07-28T09:36:08;2.88;;;2.65;;
10902;SDS011;5504;47.312;11.060;2023-07-28T09:38:36;4.72;;;2.90;;
10902;SDS011;5504;47.312;11.060;2023-07-28T09:41:04;3.60;;;2.97;;
10902;SDS011;5504;47.312;11.060;2023-07-28T09:43:35;4.30;;;2.90;;
10902;SDS011;5504;47.312;11.060;2023-07-28T09:46:05;3.63;;;2.75;;
10902;SDS011;5504;47.312;11.060;2023-07-28T09:48:33;2.92;;;2.67;;
10902;SDS011;5504;47.312;11.060;2023-07-28T09:51:03;3.13;;;2.83;;
10902;SDS011;5504;47.312;11.060;2023-07-28T09:53:35;3.53;;;2.67;;
10902;SDS011;5504;47.312;11.060;2023-07-28T09:56:09;2.97;;;2.60;;
10902;SDS011;5504;47.312;11.060;2023-07-28T09:58:38;3.20;;;2.92;;
10902;SDS011;5504;47.312;11.060;2023-07-28T10:01:08;3.70;;;2.95;;
10902;SDS011;5504;47.312;11.060;2023-07-28T10:03:36;3.80;;;2.80;;
10902;SDS011;5504;47.312;11.060;2023-07-28T10:06:02;3.22;;;2.50;;
10902;SDS011;5504;47.312;11.060;2023-07-28T10:08:28;3.22;;;2.92;;
10902;SDS011;5504;47.312;11.060;2023-07-28T10:10:54;2.78;;;2.58;;
10902;SDS011;5504;47.312;11.060;2023-07-28T10:13:21;3.05;;;2.78;;
10902;SDS011;5504;47.312;11.060;2023-07-28T10:15:47;2.90;;;2.67;;
10902;SDS011;5504;47.312;11.060;2023-07-28T10:18:14;3.83;;;2.63;;
10902;SDS011;5504;47.312;11.060;2023-07-28T10:20:40;3.42;;;2.70;;
10902;SDS011;5504;47.312;11.060;2023-07-28T10:23:11;2.97;;;2.78;;
10902;SDS011;5504;47.312;11.060;2023-07-28T10:25:39;3.17;;;2.70;;
10902;SDS011;5504;47.312;11.060;2023-07-28T10:28:06;2.70;;;2.50;;
10902;SDS011;5504;47.312;11.060;2023-07-28T10:30:53;3.55;;;2.60;;
10902;SDS011;5504;47.312;11.060;2023-07-28T10:33:33;2.80;;;2.60;;
10902;SDS011;5504;47.312;11.060;2023-07-28T10:36:10;4.72;;;3.00;;
10902;SDS011;5504;47.312;11.060;2023-07-28T10:38:41;3.35;;;2.83;;
10902;SDS011;5504;47.312;11.060;2023-07-28T10:43:44;3.05;;;2.83;;
10902;SDS011;5504;47.312;11.060;2023-07-28T10:46:11;3.10;;;2.80;;
10902;SDS011;5504;47.312;11.060;2023-07-28T10:48:47;2.95;;;2.55;;
10902;SDS011;5504;47.312;11.060;2023-07-28T10:51:24;3.80;;;2.75;;
10902;SDS011;5504;47.312;11.060;2023-07-28T10:53:56;3.42;;;2.45;;
10902;SDS011;5504;47.312;11.060;2023-07-28T10:56:22;3.03;;;2.60;;
10902;SDS011;5504;47.312;11.060;2023-07-28T10:58:58;2.97;;;2.78;;
10902;SDS011;5504;47.312;11.060;2023-07-28T11:01:32;2.70;;;2.50;;
10902;SDS011;5504;47.312;11.060;2023-07-28T11:04:08;2.97;;;2.65;;
10902;SDS011;5504;47.312;11.060;2023-07-28T11:06:35;3.10;;;2.75;;
10902;SDS011;5504;47.312;11.060;2023-07-28T11:09:00;2.78;;;2.55;;
10902;SDS011;5504;47.312;11.060;2023-07-28T11:11:27;2.80;;;2.60;;
10902;SDS011;5504;47.312;11.060;2023-07-28T11:13:53;3.25;;;2.95;;
10902;SDS011;5504;47.312;11.060;2023-07-28T11:16:19;4.13;;;2.70;;
10902;SDS011;5504;47.312;11.060;2023-07-28T11:18:46;2.70;;;2.50;;
10902;SDS011;5504;47.312;11.060;2023-07-28T11:21:11;2.80;;;2.60;;
10902;SDS011;5504;47.312;11.060;2023-07-28T11:23:37;2.53;;;2.33;;
10902;SDS011;5504;47.312;11.060;2023-07-28T11:26:05;2.90;;;2.58;;
10902;SDS011;5504;47.312;11.060;2023-07-28T11:28:32;2.50;;;2.30;;
10902;SDS011;5504;47.312;11.060;2023-07-28T11:30:59;2.92;;;2.63;;
10902;SDS011;5504;47.312;11.060;2023-07-28T11:33:24;2.70;;;2.50;;
10902;SDS011;5504;47.312;11.060;2023-07-28T11:35:50;3.00;;;2.70;;
10902;SDS011;5504;47.312;11.060;2023-07-28T11:38:16;2.70;;;2.42;;
10902;SDS011;5504;47.312;11.060;2023-07-28T11:40:42;2.97;;;2.67;;
10902;SDS011;5504;47.312;11.060;2023-07-28T11:43:09;2.92;;;2.50;;
10902;SDS011;5504;47.312;11.060;2023-07-28T11:45:35;2.80;;;2.60;;
10902;SDS011;5504;47.312;11.060;2023-07-28T11:48:02;2.78;;;2.58;;
10902;SDS011;5504;47.312;11.060;2023-07-28T11:50:39;2.95;;;2.65;;
10902;SDS011;5504;47.312;11.060;2023-07-28T11:53:06;3.13;;;2.80;;
10902;SDS011;5504;47.312;11.060;2023-07-28T11:55:34;3.00;;;2.67;;
10902;SDS011;5504;47.312;11.060;2023-07-28T11:58:02;3.00;;;2.70;;
10902;SDS011;5504;47.312;11.060;2023-07-28T12:00:30;3.00;;;2.70;;
10902;SDS011;5504;47.312;11.060;2023-07-28T12:03:07;2.20;;;2.00;;
10902;SDS011;5504;47.312;11.060;2023-07-28T12:05:40;3.63;;;2.60;;
10902;SDS011;5504;47.312;11.060;2023-07-28T12:08:38;3.40;;;2.63;;
10902;SDS011;5504;47.312;11.060;2023-07-28T12:11:04;3.38;;;2.95;;
10902;SDS011;5504;47.312;11.060;2023-07-28T12:13:31;2.90;;;2.70;;
10902;SDS011;5504;47.312;11.060;2023-07-28T12:15:57;3.17;;;2.85;;
10902;SDS011;5504;47.312;11.060;2023-07-28T12:18:23;3.50;;;2.67;;
10902;SDS011;5504;47.312;11.060;2023-07-28T12:20:55;2.58;;;2.38;;
10902;SDS011;5504;47.312;11.060;2023-07-28T12:23:21;4.00;;;2.95;;
10902;SDS011;5504;47.312;11.060;2023-07-28T12:25:48;3.17;;;2.88;;
10902;SDS011;5504;47.312;11.060;2023-07-28T12:28:15;3.40;;;3.10;;
10902;SDS011;5504;47.312;11.060;2023-07-28T12:30:41;3.67;;;3.20;;
10902;SDS011;5504;47.312;11.060;2023-07-28T12:33:08;2.80;;;2.60;;
10902;SDS011;5504;47.312;11.060;2023-07-28T12:35:34;3.03;;;2.75;;
10902;SDS011;5504;47.312;11.060;2023-07-28T12:38:03;5.13;;;2.95;;
10902;SDS011;5504;47.312;11.060;2023-07-28T12:40:30;3.20;;;2.90;;
10902;SDS011;5504;47.312;11.060;2023-07-28T12:42:57;3.83;;;3.20;;
10902;SDS011;5504;47.312;11.060;2023-07-28T12:45:23;3.53;;;3.13;;
10902;SDS011;5504;47.312;11.060;2023-07-28T12:47:53;3.80;;;2.83;;
10902;SDS011;5504;47.312;11.060;2023-07-28T12:50:23;3.20;;;2.90;;
10902;SDS011;5504;47.312;11.060;2023-07-28T12:52:49;3.15;;;2.78;;
10902;SDS011;5504;47.312;11.060;2023-07-28T12:55:16;3.83;;;2.80;;
10902;SDS011;5504;47.312;11.060;2023-07-28T12:57:43;3.95;;;2.60;;
10902;SDS011;5504;47.312;11.060;2023-07-28T13:00:09;3.40;;;2.75;;
10902;SDS011;5504;47.312;11.060;2023-07-28T13:02:41;2.92;;;2.70;;
10902;SDS011;5504;47.312;11.060;2023-07-28T13:05:08;2.65;;;2.45;;
10902;SDS011;5504;47.312;11.060;2023-07-28T13:07:38;3.33;;;2.80;;
10902;SDS011;5504;47.312;11.060;2023-07-28T13:10:06;3.08;;;2.58;;
10902;SDS011;5504;47.312;11.060;2023-07-28T13:12:36;2.78;;;2.58;;
10902;SDS011;5504;47.312;11.060;2023-07-28T13:15:02;2.55;;;2.35;;
10902;SDS011;5504;47.312;11.060;2023-07-28T13:17:28;2.70;;;2.50;;
10902;SDS011;5504;47.312;11.060;2023-07-28T13:19:54;2.67;;;2.45;;
10902;SDS011;5504;47.312;11.060;2023-07-28T13:22:22;2.60;;;2.40;;
10902;SDS011;5504;47.312;11.060;2023-07-28T13:24:48;2.40;;;2.20;;
10902;SDS011;5504;47.312;11.060;2023-07-28T13:27:14;2.63;;;2.42;;
10902;SDS011;5504;47.312;11.060;2023-07-28T13:29:39;2.85;;;2.50;;
10902;SDS011;5504;47.312;11.060;2023-07-28T13:32:14;3.22;;;2.90;;
10902;SDS011;5504;47.312;11.060;2023-07-28T13:34:44;2.92;;;2.67;;
10902;SDS011;5504;47.312;11.060;2023-07-28T13:37:10;3.85;;;2.70;;
10902;SDS011;5504;47.312;11.060;2023-07-28T13:39:35;4.07;;;2.78;;
10902;SDS011;5504;47.312;11.060;2023-07-28T13:42:01;2.88;;;2.58;;
10902;SDS011;5504;47.312;11.060;2023-07-28T13:44:27;3.03;;;2.72;;
10902;SDS011;5504;47.312;11.060;2023-07-28T13:46:52;5.55;;;2.55;;
10902;SDS011;5504;47.312;11.060;2023-07-28T13:49:18;4.10;;;2.60;;
10902;SDS011;5504;47.312;11.060;2023-07-28T13:51:44;3.20;;;2.90;;
10902;SDS011;5504;47.312;11.060;2023-07-28T13:54:10;2.95;;;2.63;;
10902;SDS011;5504;47.312;11.060;2023-07-28T13:56:36;4.05;;;2.88;;
10902;SDS011;5504;47.312;11.060;2023-07-28T13:59:02;2.83;;;2.53;;
10902;SDS011;5504;47.312;11.060;2023-07-28T14:01:27;4.25;;;3.20;;
10902;SDS011;5504;47.312;11.060;2023-07-28T14:03:53;3.17;;;2.50;;
10902;SDS011;5504;47.312;11.060;2023-07-28T14:06:19;4.55;;;2.72;;
10902;SDS011;5504;47.312;11.060;2023-07-28T14:08:45;3.15;;;2.70;;
10902;SDS011;5504;47.312;11.060;2023-07-28T14:11:10;4.20;;;2.72;;
10902;SDS011;5504;47.312;11.060;2023-07-28T14:13:36;4.97;;;2.88;;
10902;SDS011;5504;47.312;11.060;2023-07-28T14:16:02;3.47;;;2.95;;
10902;SDS011;5504;47.312;11.060;2023-07-28T14:18:27;3.50;;;3.00;;
10902;SDS011;5504;47.312;11.060;2023-07-28T14:20:53;6.40;;;3.25;;
10902;SDS011;5504;47.312;11.060;2023-07-28T14:23:25;3.78;;;2.90;;
10902;SDS011;5504;47.312;11.060;2023-07-28T14:25:52;4.72;;;3.42;;
10902;SDS011;5504;47.312;11.060;2023-07-28T14:28:19;3.60;;;3.20;;
10902;SDS011;5504;47.312;11.060;2023-07-28T14:30:45;3.90;;;3.17;;
10902;SDS011;5504;47.312;11.060;2023-07-28T14:33:15;3.70;;;3.22;;
10902;SDS011;5504;47.312;11.060;2023-07-28T14:35:45;3.50;;;3.17;;
10902;SDS011;5504;47.312;11.060;2023-07-28T14:38:12;3.20;;;2.78;;
10902;SDS011;5504;47.312;11.060;2023-07-28T14:40:38;3.78;;;2.70;;
10902;SDS011;5504;47.312;11.060;2023-07-28T14:43:05;2.95;;;2.60;;
10902;SDS011;5504;47.312;11.060;2023-07-28T14:45:31;3.90;;;2.80;;
10902;SDS011;5504;47.312;11.060;2023-07-28T14:47:57;2.72;;;2.50;;
10902;SDS011;5504;47.312;11.060;2023-07-28T14:50:22;4.45;;;2.97;;
10902;SDS011;5504;47.312;11.060;2023-07-28T14:52:48;3.22;;;2.70;;